Time;durP1;ratioP1;P1;durP2;ratioP2;P2;SDS_P1;SDS_P2;PMS_P1;PMS_P2;Temp;Humidity;BMP_temperature;BMP_pressure;BME280_temperature;BME280_humidity;BME280_pressure;Samples;Min_cycle;Max_cycle;Signal;HPM_P1;HPM_P2
2022/08/23 00:02:07;;;;;;;12.55;7.57;;;;;;;;;;5052797;28;20033;-76
2022/08/23 00:04:34;;;;;;;18.33;7.80;;;;;;;;;;5036416;28;20079;-76
2022/08/23 00:07:01;;;;;;;12.13;7.57;;;;;;;;;;5060710;28;20040;-76
2022/08/23 00:09:28;;;;;;;13.90;7.78;;;;;;;;;;5052983;28;20072;-76
2022/08/23 00:11:54;;;;;;;11.90;7.53;;;;;;;;;;5052482;28;20045;-76
2022/08/23 00:14:20;;;;;;;13.00;7.97;;;;;;;;;;5052892;28;20076;-76
2022/08/23 00:16:46;;;;;;;14.48;9.05;;;;;;;;;;5052430;28;20041;-76
2022/08/23 00:19:13;;;;;;;14.65;8.82;;;;;;;;;;5052705;28;20047;-76
2022/08/23 00:21:40;;;;;;;15.93;9.07;;;;;;;;;;5054389;28;20041;-76
2022/08/23 00:24:08;;;;;;;13.25;7.45;;;;;;;;;;5052437;28;20041;-76
2022/08/23 00:26:52;;;;;;;17.38;8.63;;;;;;;;;;5052505;28;20095;-76
2022/08/23 00:29:19;;;;;;;13.75;9.00;;;;;;;;;;5052625;28;20400;-76
2022/08/23 00:31:45;;;;;;;19.00;9.48;;;;;;;;;;5035678;28;20087;-76
2022/08/23 00:34:11;;;;;;;16.30;9.98;;;;;;;;;;5052695;28;20447;-79
2022/08/23 00:36:38;;;;;;;15.25;9.02;;;;;;;;;;5042745;28;20409;-79
2022/08/23 00:39:04;;;;;;;16.45;9.57;;;;;;;;;;5052078;28;20041;-79
2022/08/23 00:41:30;;;;;;;14.57;9.77;;;;;;;;;;5048370;28;20036;-79
2022/08/23 00:49:29;;;;;;;14.20;9.57;;;;;;;;;;5068592;28;20048;-79
2022/08/23 00:52:16;;;;;;;17.15;9.27;;;;;;;;;;5058263;28;20057;-79
2022/08/23 00:54:42;;;;;;;;;;;;;;;;;;5052060;28;20389;-79
2022/08/23 00:57:10;;;;;;;16.02;9.30;;;;;;;;;;5051531;28;19973;-79
2022/08/23 00:59:36;;;;;;;21.13;10.52;;;;;;;;;;5051973;28;20036;-79
2022/08/23 01:02:04;;;;;;;19.20;10.25;;;;;;;;;;5057009;28;20401;-80
2022/08/23 01:04:33;;;;;;;16.75;9.55;;;;;;;;;;5062540;28;20040;-79
2022/08/23 01:07:03;;;;;;;16.58;10.13;;;;;;;;;;5051545;28;20083;-80
2022/08/23 01:09:29;;;;;;;16.20;10.00;;;;;;;;;;5051915;28;20056;-80
2022/08/23 01:12:03;;;;;;;15.65;10.00;;;;;;;;;;5051051;28;20047;-80
2022/08/23 01:14:35;;;;;;;14.43;9.88;;;;;;;;;;5035130;28;20393;-79
2022/08/23 01:17:04;;;;;;;16.33;10.38;;;;;;;;;;5050994;28;20103;-79
2022/08/23 01:19:38;;;;;;;15.10;9.70;;;;;;;;;;5054442;28;20049;-80
2022/08/23 01:22:04;;;;;;;18.75;9.52;;;;;;;;;;5051043;28;20043;-79
2022/08/23 01:24:30;;;;;;;14.23;8.32;;;;;;;;;;5035127;28;20037;-79
2022/08/23 01:26:57;;;;;;;17.38;10.48;;;;;;;;;;5050649;28;20049;-79
2022/08/23 01:29:23;;;;;;;18.83;10.93;;;;;;;;;;5035192;28;20447;-80
2022/08/23 01:31:49;;;;;;;13.77;9.88;;;;;;;;;;5052273;28;20041;-79
2022/08/23 01:34:17;;;;;;;16.67;10.32;;;;;;;;;;5051968;28;20037;-79
2022/08/23 01:36:43;;;;;;;17.40;10.35;;;;;;;;;;5051354;28;20048;-79
2022/08/23 01:39:09;;;;;;;15.70;9.68;;;;;;;;;;5052975;28;20045;-79
2022/08/23 01:41:39;;;;;;;19.05;10.82;;;;;;;;;;5051130;28;20044;-80
2022/08/23 01:44:06;;;;;;;12.45;9.65;;;;;;;;;;5051005;28;20102;-79
2022/08/23 01:46:32;;;;;;;13.52;8.02;;;;;;;;;;5051295;28;20041;-79
2022/08/23 01:48:58;;;;;;;20.02;11.05;;;;;;;;;;5052024;28;20056;-79
2022/08/23 01:51:24;;;;;;;18.90;10.95;;;;;;;;;;5050782;28;20124;-80
2022/08/23 01:53:51;;;;;;;17.10;11.48;;;;;;;;;;5050946;28;20032;-80
2022/08/23 01:56:19;;;;;;;18.45;11.50;;;;;;;;;;5050661;28;20043;-79
2022/08/23 01:58:45;;;;;;;15.43;9.98;;;;;;;;;;5052417;28;20055;-79
2022/08/23 02:01:11;;;;;;;17.92;11.00;;;;;;;;;;5049559;28;20045;-80
2022/08/23 02:03:37;;;;;;;18.65;10.45;;;;;;;;;;5035165;28;20041;-79
2022/08/23 02:06:04;;;;;;;12.98;8.30;;;;;;;;;;5047009;28;20382;-79
2022/08/23 02:09:12;;;;;;;14.95;9.38;;;;;;;;;;5049619;28;20389;-79
2022/08/23 02:11:21;;;;;;;15.10;9.35;;;;;;;;;;5045018;28;20126;-80
2022/08/23 02:13:47;;;;;;;15.10;8.63;;;;;;;;;;5053443;28;20097;-79
2022/08/23 02:16:20;;;;;;;21.30;11.05;;;;;;;;;;5051595;28;20045;-79
2022/08/23 02:18:47;;;;;;;10.90;7.68;;;;;;;;;;5054951;28;20044;-79
2022/08/23 02:21:13;;;;;;;12.15;7.97;;;;;;;;;;5048571;28;20076;-79
2022/08/23 02:23:39;;;;;;;17.02;10.30;;;;;;;;;;5048646;28;20041;-80
2022/08/23 02:26:05;;;;;;;13.85;9.57;;;;;;;;;;5032496;28;20049;-79
2022/08/23 02:28:31;;;;;;;18.67;10.55;;;;;;;;;;5049163;28;20052;-79
2022/08/23 02:30:57;;;;;;;17.58;10.38;;;;;;;;;;5049039;28;20045;-79
2022/08/23 02:33:24;;;;;;;15.38;9.05;;;;;;;;;;5031240;28;20124;-79
2022/08/23 02:35:50;;;;;;;16.02;9.98;;;;;;;;;;5048954;28;20098;-79
2022/08/23 02:38:17;;;;;;;13.38;7.97;;;;;;;;;;5049839;28;20069;-79
2022/08/23 02:40:43;;;;;;;14.98;9.40;;;;;;;;;;5050485;28;20052;-80
2022/08/23 02:43:10;;;;;;;19.30;9.68;;;;;;;;;;5059005;28;20105;-79
2022/08/23 02:45:36;;;;;;;11.82;7.80;;;;;;;;;;5047767;28;20041;-79
2022/08/23 02:48:03;;;;;;;13.50;9.07;;;;;;;;;;5047830;28;20051;-79
2022/08/23 02:50:30;;;;;;;14.15;9.85;;;;;;;;;;5050589;28;20084;-79
2022/08/23 02:52:57;;;;;;;11.02;8.20;;;;;;;;;;5050671;28;20409;-79
2022/08/23 02:55:24;;;;;;;19.38;10.48;;;;;;;;;;5033498;28;20052;-79
2022/08/23 02:57:50;;;;;;;15.40;10.00;;;;;;;;;;5038296;28;20036;-79
2022/08/23 03:00:17;;;;;;;12.98;9.90;;;;;;;;;;5050151;28;20037;-79
2022/08/23 03:02:44;;;;;;;351.52;14.90;;;;;;;;;;5035733;28;20082;-79
2022/08/23 03:05:10;;;;;;;40.95;9.43;;;;;;;;;;5053967;28;20128;-79
2022/08/23 03:07:36;;;;;;;13.15;6.80;;;;;;;;;;5053328;28;20057;-79
2022/08/23 03:10:03;;;;;;;10.30;6.13;;;;;;;;;;5054412;28;20562;-79
2022/08/23 03:12:29;;;;;;;13.38;8.50;;;;;;;;;;5062663;28;20123;-79
2022/08/23 03:14:56;;;;;;;9.57;7.47;;;;;;;;;;5055046;28;20478;-79
2022/08/23 03:17:22;;;;;;;7.68;5.78;;;;;;;;;;5036887;28;20076;-79
2022/08/23 03:19:48;;;;;;;10.70;7.32;;;;;;;;;;5053810;28;20033;-79
2022/08/23 03:22:14;;;;;;;15.20;9.60;;;;;;;;;;5053491;28;20041;-80
2022/08/23 03:24:40;;;;;;;13.93;9.27;;;;;;;;;;5037298;28;20143;-79
2022/08/23 03:27:07;;;;;;;18.48;9.68;;;;;;;;;;5053672;28;20118;-79
2022/08/23 03:29:33;;;;;;;13.85;9.32;;;;;;;;;;5053401;28;20113;-79
2022/08/23 03:31:59;;;;;;;13.70;8.02;;;;;;;;;;5053934;28;20045;-79
2022/08/23 03:34:25;;;;;;;13.25;9.00;;;;;;;;;;5053556;28;20048;-79
2022/08/23 03:36:51;;;;;;;14.90;10.43;;;;;;;;;;5053677;28;20124;-79
2022/08/23 03:39:17;;;;;;;18.65;11.82;;;;;;;;;;5036268;28;20040;-79
2022/08/23 03:41:43;;;;;;;19.63;10.98;;;;;;;;;;5058953;28;20054;-79
2022/08/23 03:44:10;;;;;;;15.00;10.25;;;;;;;;;;5053204;28;20080;-79
2022/08/23 03:46:36;;;;;;;14.63;11.20;;;;;;;;;;5053688;28;20044;-79
2022/08/23 03:49:02;;;;;;;17.23;10.32;;;;;;;;;;5053398;28;20052;-79
2022/08/23 03:51:30;;;;;;;9.70;6.45;;;;;;;;;;5052962;28;20073;-80
2022/08/23 03:53:56;;;;;;;13.27;8.40;;;;;;;;;;5035961;28;20091;-79
2022/08/23 03:56:27;;;;;;;13.57;7.53;;;;;;;;;;5047985;28;20056;-80
2022/08/23 03:58:53;;;;;;;15.32;8.93;;;;;;;;;;5065238;28;20047;-80
2022/08/23 04:01:20;;;;;;;13.70;8.52;;;;;;;;;;5033740;28;20037;-80
2022/08/23 04:03:47;;;;;;;16.88;9.73;;;;;;;;;;5052375;28;20047;-80
2022/08/23 04:06:13;;;;;;;15.27;11.20;;;;;;;;;;5051167;28;20063;-79
2022/08/23 04:08:39;;;;;;;17.88;11.40;;;;;;;;;;5053310;28;20049;-79
2022/08/23 04:11:06;;;;;;;17.33;12.00;;;;;;;;;;5051851;28;20052;-79
2022/08/23 04:13:33;;;;;;;15.48;11.05;;;;;;;;;;5064017;28;20110;-80
2022/08/23 04:16:02;;;;;;;18.65;11.80;;;;;;;;;;5053232;28;20295;-79
2022/08/23 04:18:30;;;;;;;18.92;12.43;;;;;;;;;;5038339;28;20490;-79
2022/08/23 04:20:57;;;;;;;20.17;13.35;;;;;;;;;;5052587;28;20486;-79
2022/08/23 04:23:24;;;;;;;16.55;11.32;;;;;;;;;;5051847;28;20043;-79
2022/08/23 04:25:50;;;;;;;17.30;11.88;;;;;;;;;;5052546;28;20080;-80
2022/08/23 04:28:17;;;;;;;13.32;9.95;;;;;;;;;;5039789;28;20045;-80
2022/08/23 04:30:44;;;;;;;16.05;11.20;;;;;;;;;;5036115;28;20045;-80
2022/08/23 04:33:11;;;;;;;20.23;12.50;;;;;;;;;;5052186;28;20049;-81
2022/08/23 04:35:37;;;;;;;9.35;7.18;;;;;;;;;;5051971;28;20045;-79
2022/08/23 04:38:03;;;;;;;68.60;7.97;;;;;;;;;;5036082;28;20072;-81
2022/08/23 04:43:14;;;;;;;13.82;9.70;;;;;;;;;;5057372;28;20037;-80
2022/08/23 04:45:40;;;;;;;14.63;10.32;;;;;;;;;;5029214;28;20053;-80
2022/08/23 04:48:08;;;;;;;11.57;9.40;;;;;;;;;;5044695;28;20061;-80
2022/08/23 04:50:35;;;;;;;15.52;11.57;;;;;;;;;;5035366;28;20517;-79
2022/08/23 04:53:01;;;;;;;25.40;12.38;;;;;;;;;;5052164;28;20076;-79
2022/08/23 04:55:27;;;;;;;63.08;8.85;;;;;;;;;;5034452;28;20045;-79
2022/08/23 04:57:53;;;;;;;79.90;10.25;;;;;;;;;;5051809;28;20037;-80
2022/08/23 05:00:20;;;;;;;14.85;9.93;;;;;;;;;;5051534;28;20041;-79
2022/08/23 05:02:46;;;;;;;15.45;11.73;;;;;;;;;;5035047;28;20049;-80
2022/08/23 05:05:13;;;;;;;16.52;11.77;;;;;;;;;;5034937;28;20076;-79
2022/08/23 05:07:39;;;;;;;13.98;10.88;;;;;;;;;;5051262;28;20049;-79
2022/08/23 05:10:07;;;;;;;13.98;10.73;;;;;;;;;;5050887;28;20049;-79
2022/08/23 05:12:33;;;;;;;17.17;10.88;;;;;;;;;;5052444;28;20041;-80
2022/08/23 05:14:59;;;;;;;14.98;10.50;;;;;;;;;;5052485;28;20041;-80
2022/08/23 05:17:25;;;;;;;10.85;9.23;;;;;;;;;;5050933;28;20041;-80
2022/08/23 05:19:52;;;;;;;12.18;9.93;;;;;;;;;;5051550;28;20547;-80
2022/08/23 05:22:18;;;;;;;13.38;9.38;;;;;;;;;;5050954;28;20474;-80
2022/08/23 05:24:44;;;;;;;11.05;8.70;;;;;;;;;;5049969;28;20532;-80
2022/08/23 05:27:10;;;;;;;10.32;9.00;;;;;;;;;;5051097;28;20588;-81
2022/08/23 05:29:39;;;;;;;9.90;8.80;;;;;;;;;;5050923;28;20098;-80
2022/08/23 05:32:05;;;;;;;10.23;8.35;;;;;;;;;;5034627;28;20045;-81
2022/08/23 05:34:31;;;;;;;11.60;8.25;;;;;;;;;;5034396;28;20527;-81
2022/08/23 05:36:58;;;;;;;11.05;7.80;;;;;;;;;;5050909;28;20048;-80
2022/08/23 05:39:24;;;;;;;10.43;8.07;;;;;;;;;;5034885;28;20465;-81
2022/08/23 05:41:50;;;;;;;11.05;8.10;;;;;;;;;;5051309;28;20068;-81
2022/08/23 05:44:16;;;;;;;10.10;7.70;;;;;;;;;;5051565;28;20045;-81
2022/08/23 05:46:42;;;;;;;16.70;8.95;;;;;;;;;;5034052;28;20044;-81
2022/08/23 05:49:08;;;;;;;13.82;8.45;;;;;;;;;;5050392;28;20093;-80
2022/08/23 05:51:34;;;;;;;13.30;9.93;;;;;;;;;;5050687;28;20048;-80
2022/08/23 05:54:02;;;;;;;12.82;8.82;;;;;;;;;;5067386;28;20045;-81
2022/08/23 05:56:33;;;;;;;12.10;8.63;;;;;;;;;;5050314;28;20477;-81
2022/08/23 05:59:01;;;;;;;11.00;8.98;;;;;;;;;;5051292;28;20056;-80
2022/08/23 06:01:29;;;;;;;10.77;8.98;;;;;;;;;;5031536;28;20045;-81
2022/08/23 06:03:55;;;;;;;13.25;9.65;;;;;;;;;;5050886;28;20040;-81
2022/08/23 06:06:21;;;;;;;9.95;8.48;;;;;;;;;;5050752;28;20544;-80
2022/08/23 06:08:48;;;;;;;17.23;9.45;;;;;;;;;;5033148;28;20443;-81
2022/08/23 06:11:19;;;;;;;12.20;8.85;;;;;;;;;;5050739;28;20049;-81
2022/08/23 06:13:56;;;;;;;10.38;7.88;;;;;;;;;;5050709;28;20116;-81
2022/08/23 06:16:25;;;;;;;10.88;8.15;;;;;;;;;;5050100;28;20048;-81
2022/08/23 06:18:51;;;;;;;12.52;7.85;;;;;;;;;;5050712;28;20041;-81
2022/08/23 06:21:17;;;;;;;9.77;7.55;;;;;;;;;;5050567;28;20095;-81
2022/08/23 06:23:46;;;;;;;10.38;7.63;;;;;;;;;;5017097;28;20041;-81
2022/08/23 06:26:32;;;;;;;12.90;7.13;;;;;;;;;;5050892;28;20094;-81
2022/08/23 06:29:01;;;;;;;8.38;6.90;;;;;;;;;;5058295;28;20060;-82
2022/08/23 06:31:48;;;;;;;10.18;6.78;;;;;;;;;;5050313;28;20400;-80
2022/08/23 06:34:31;;;;;;;9.10;7.00;;;;;;;;;;5050479;28;20527;-80
2022/08/23 06:36:59;;;;;;;8.10;6.60;;;;;;;;;;5049671;28;20099;-80
2022/08/23 06:39:27;;;;;;;8.63;6.03;;;;;;;;;;5050496;28;20063;-81
2022/08/23 06:41:56;;;;;;;9.50;6.70;;;;;;;;;;5045045;28;20498;-81
2022/08/23 06:44:22;;;;;;;9.70;6.53;;;;;;;;;;5044716;28;20041;-80
2022/08/23 06:46:48;;;;;;;9.07;6.47;;;;;;;;;;5046299;28;20049;-81
2022/08/23 06:49:15;;;;;;;9.23;6.60;;;;;;;;;;5051301;28;20088;-83
2022/08/23 06:51:42;;;;;;;8.32;6.30;;;;;;;;;;5048682;28;20073;-84
2022/08/23 06:54:11;;;;;;;9.68;5.47;;;;;;;;;;5047826;28;20077;-85
2022/08/23 06:56:37;;;;;;;8.82;6.43;;;;;;;;;;5050301;28;20474;-81
2022/08/23 06:59:05;;;;;;;7.10;5.70;;;;;;;;;;5050500;28;20387;-81
2022/08/23 07:01:40;;;;;;;8.80;5.95;;;;;;;;;;5048796;28;20045;-80
2022/08/23 07:04:07;;;;;;;11.52;6.55;;;;;;;;;;5054192;28;20486;-80
2022/08/23 07:06:33;;;;;;;10.25;6.43;;;;;;;;;;5042632;28;20048;-80
2022/08/23 07:08:59;;;;;;;9.38;5.72;;;;;;;;;;5054218;28;20057;-80
2022/08/23 07:11:28;;;;;;;10.13;6.45;;;;;;;;;;5047550;28;20033;-80
2022/08/23 07:13:54;;;;;;;10.27;6.80;;;;;;;;;;5039750;28;20098;-80
2022/08/23 07:16:21;;;;;;;13.35;7.65;;;;;;;;;;5046267;28;20056;-81
2022/08/23 07:18:48;;;;;;;10.15;6.68;;;;;;;;;;5047593;28;20041;-81
2022/08/23 07:21:15;;;;;;;10.48;6.85;;;;;;;;;;5048495;28;20037;-81
2022/08/23 07:23:42;;;;;;;9.20;6.68;;;;;;;;;;5046069;28;20037;-80
2022/08/23 07:26:12;;;;;;;8.20;7.13;;;;;;;;;;5049116;28;20122;-80
2022/08/23 07:28:39;;;;;;;9.52;7.63;;;;;;;;;;5044379;28;20045;-80
2022/08/23 07:31:06;;;;;;;9.55;6.82;;;;;;;;;;5049217;28;20053;-81
2022/08/23 07:33:32;;;;;;;12.27;7.10;;;;;;;;;;5048760;28;20486;-81
2022/08/23 07:35:58;;;;;;;9.80;6.80;;;;;;;;;;5039766;28;20091;-81
2022/08/23 07:38:24;;;;;;;12.35;7.28;;;;;;;;;;5046979;28;20390;-81
2022/08/23 07:40:50;;;;;;;10.60;7.40;;;;;;;;;;5047427;28;20516;-81
2022/08/23 07:43:16;;;;;;;11.32;7.10;;;;;;;;;;5052292;28;20047;-83
2022/08/23 07:45:43;;;;;;;12.45;7.43;;;;;;;;;;5047806;28;20091;-81
2022/08/23 07:48:11;;;;;;;11.82;7.32;;;;;;;;;;5050501;28;20528;-81
2022/08/23 07:50:39;;;;;;;8.50;7.30;;;;;;;;;;5052325;28;20494;-81
2022/08/23 07:53:07;;;;;;;11.60;7.28;;;;;;;;;;5052820;28;20118;-81
2022/08/23 07:55:33;;;;;;;8.63;7.28;;;;;;;;;;5052488;28;20053;-81
2022/08/23 07:57:59;;;;;;;12.65;7.00;;;;;;;;;;5020355;28;20041;-81
2022/08/23 08:00:26;;;;;;;11.70;8.10;;;;;;;;;;5047574;28;20037;-81
2022/08/23 08:02:52;;;;;;;9.98;6.90;;;;;;;;;;5043494;28;20444;-81
2022/08/23 08:05:18;;;;;;;7.18;5.80;;;;;;;;;;5051129;28;20043;-80
2022/08/23 08:07:44;;;;;;;10.88;6.38;;;;;;;;;;5052277;28;20037;-81
2022/08/23 08:10:11;;;;;;;11.38;5.90;;;;;;;;;;5066215;28;20044;-81
2022/08/23 08:12:37;;;;;;;10.48;6.88;;;;;;;;;;5047290;28;20041;-81
2022/08/23 08:15:03;;;;;;;12.85;7.32;;;;;;;;;;5030757;28;20047;-79
2022/08/23 08:17:29;;;;;;;8.75;7.32;;;;;;;;;;5045197;28;20494;-81
2022/08/23 08:19:55;;;;;;;9.18;7.05;;;;;;;;;;5043140;28;20497;-81
2022/08/23 08:22:22;;;;;;;8.60;6.60;;;;;;;;;;5052779;28;20033;-80
2022/08/23 08:24:48;;;;;;;9.75;7.30;;;;;;;;;;5045050;28;20120;-80
2022/08/23 08:27:14;;;;;;;12.98;7.18;;;;;;;;;;5052555;28;20056;-81
2022/08/23 08:29:42;;;;;;;11.40;7.03;;;;;;;;;;5052381;28;20049;-83
2022/08/23 08:32:09;;;;;;;10.30;7.20;;;;;;;;;;5034625;28;20049;-83
2022/08/23 08:34:35;;;;;;;13.18;7.60;;;;;;;;;;5044547;28;20040;-83
2022/08/23 08:37:01;;;;;;;11.07;7.32;;;;;;;;;;5051259;28;20073;-81
2022/08/23 08:39:31;;;;;;;9.93;6.80;;;;;;;;;;5052466;28;20059;-83
2022/08/23 08:42:00;;;;;;;11.38;6.85;;;;;;;;;;5044094;28;20383;-82
2022/08/23 08:44:34;;;;;;;9.77;6.60;;;;;;;;;;5051133;28;20060;-82
2022/08/23 08:47:05;;;;;;;11.90;6.47;;;;;;;;;;5034647;28;20092;-80
2022/08/23 08:49:34;;;;;;;9.60;6.93;;;;;;;;;;5051839;28;20061;-80
2022/08/23 08:52:14;;;;;;;9.82;6.50;;;;;;;;;;5035350;28;20053;-81
2022/08/23 08:54:42;;;;;;;11.13;6.63;;;;;;;;;;5044483;28;20413;-80
2022/08/23 08:57:10;;;;;;;10.38;6.80;;;;;;;;;;5052130;28;20531;-80
2022/08/23 08:59:42;;;;;;;13.52;7.20;;;;;;;;;;5051883;28;20033;-81
2022/08/23 09:02:14;;;;;;;8.73;6.30;;;;;;;;;;5051163;28;20055;-81
2022/08/23 09:04:40;;;;;;;10.98;6.75;;;;;;;;;;5052059;28;20048;-81
2022/08/23 09:07:19;;;;;;;10.75;6.72;;;;;;;;;;5018353;28;20041;-80
2022/08/23 09:09:51;;;;;;;10.48;6.70;;;;;;;;;;5051926;28;20044;-81
2022/08/23 09:12:22;;;;;;;8.07;6.47;;;;;;;;;;5051214;28;20048;-81
2022/08/23 09:14:55;;;;;;;13.60;6.85;;;;;;;;;;5050681;28;20040;-80
2022/08/23 09:17:34;;;;;;;11.70;6.80;;;;;;;;;;5051412;28;20037;-81
2022/08/23 09:20:03;;;;;;;9.18;6.97;;;;;;;;;;5051130;28;20029;-78
2022/08/23 09:22:35;;;;;;;8.57;6.18;;;;;;;;;;5034860;28;20044;-79
2022/08/23 09:25:01;;;;;;;14.05;6.10;;;;;;;;;;5051231;28;20037;-79
2022/08/23 09:27:27;;;;;;;12.98;5.72;;;;;;;;;;5034818;28;20037;-80
2022/08/23 09:29:55;;;;;;;10.80;5.78;;;;;;;;;;5036746;28;20099;-80
2022/08/23 09:32:27;;;;;;;8.95;5.70;;;;;;;;;;5034943;28;20102;-80
2022/08/23 09:35:04;;;;;;;10.27;5.95;;;;;;;;;;5051332;28;20068;-81
2022/08/23 09:37:33;;;;;;;11.18;5.85;;;;;;;;;;5051463;28;20048;-81
2022/08/23 09:40:15;;;;;;;8.50;5.82;;;;;;;;;;5051093;28;20040;-81
2022/08/23 09:42:42;;;;;;;9.50;5.60;;;;;;;;;;5051912;28;20556;-81
2022/08/23 09:45:25;;;;;;;9.20;5.13;;;;;;;;;;5050750;28;20129;-81
2022/08/23 09:47:52;;;;;;;8.20;5.40;;;;;;;;;;5048605;28;20048;-80
2022/08/23 09:50:26;;;;;;;9.30;5.45;;;;;;;;;;5051584;28;20052;-81
2022/08/23 09:52:59;;;;;;;8.38;3.85;;;;;;;;;;5051002;28;20051;-80
2022/08/23 09:55:33;;;;;;;7.07;4.35;;;;;;;;;;5051589;28;20045;-81
2022/08/23 09:58:01;;;;;;;11.30;4.68;;;;;;;;;;5050270;28;20477;-78
2022/08/23 10:00:29;;;;;;;7.60;4.35;;;;;;;;;;5050019;28;20037;-79
2022/08/23 10:03:15;;;;;;;11.02;4.43;;;;;;;;;;5050972;28;20477;-78
2022/08/23 10:05:41;;;;;;;7.47;4.32;;;;;;;;;;5051042;28;20049;-79
2022/08/23 10:08:07;;;;;;;8.40;4.53;;;;;;;;;;5050084;28;20045;-78
2022/08/23 10:10:33;;;;;;;9.63;4.20;;;;;;;;;;5051194;28;20083;-78
2022/08/23 10:13:00;;;;;;;7.43;3.20;;;;;;;;;;5048766;28;20076;-79
2022/08/23 10:15:34;;;;;;;7.70;3.45;;;;;;;;;;5050635;28;20123;-80
2022/08/23 10:18:06;;;;;;;5.63;2.70;;;;;;;;;;5045552;28;20060;-77
2022/08/23 10:20:32;;;;;;;7.05;3.38;;;;;;;;;;5041165;28;20077;-78
2022/08/23 10:23:06;;;;;;;6.97;2.88;;;;;;;;;;5037608;28;20063;-78
2022/08/23 10:25:35;;;;;;;7.43;3.17;;;;;;;;;;5040947;28;20041;-79
2022/08/23 10:31:24;;;;;;;8.57;3.13;;;;;;;;;;5052572;28;20053;-78
2022/08/23 10:34:09;;;;;;;8.48;3.17;;;;;;;;;;5041892;28;20528;-78
2022/08/23 10:36:44;;;;;;;5.55;2.80;;;;;;;;;;5031944;28;20038;-80
2022/08/23 10:39:18;;;;;;;7.40;2.80;;;;;;;;;;5035815;28;20550;-79
2022/08/23 10:41:54;;;;;;;8.57;2.67;;;;;;;;;;5045982;28;20119;-79
2022/08/23 10:44:34;;;;;;;5.95;2.97;;;;;;;;;;5048535;28;20048;-79
2022/08/23 10:47:26;;;;;;;6.97;2.40;;;;;;;;;;5044728;28;20049;-79
2022/08/23 10:49:54;;;;;;;10.90;2.42;;;;;;;;;;5046601;28;20140;-79
2022/08/23 10:52:27;;;;;;;7.18;2.33;;;;;;;;;;5049852;28;20049;-79
2022/08/23 10:54:59;;;;;;;5.35;2.35;;;;;;;;;;5066308;28;20057;-79
2022/08/23 10:57:34;;;;;;;7.15;2.70;;;;;;;;;;5049667;28;20048;-79
2022/08/23 11:00:02;;;;;;;6.90;2.63;;;;;;;;;;5048800;28;20032;-79
2022/08/23 11:02:37;;;;;;;4.47;2.28;;;;;;;;;;5049928;28;20178;-80
2022/08/23 11:05:08;;;;;;;7.68;2.42;;;;;;;;;;5049620;28;20040;-82
2022/08/23 11:07:41;;;;;;;5.32;2.30;;;;;;;;;;5049873;28;20124;-81
2022/08/23 11:10:13;;;;;;;8.33;2.67;;;;;;;;;;5049393;28;20048;-76
2022/08/23 11:12:52;;;;;;;6.00;2.50;;;;;;;;;;5032752;28;20045;-80
2022/08/23 11:15:31;;;;;;;7.25;2.90;;;;;;;;;;5049423;28;20076;-78
2022/08/23 11:17:59;;;;;;;8.95;3.17;;;;;;;;;;5049758;28;20385;-76
2022/08/23 11:20:44;;;;;;;7.10;2.35;;;;;;;;;;5049732;28;20033;-76
2022/08/23 11:23:10;;;;;;;;;;;;;;;;;;5050193;28;20060;-77
2022/08/23 11:25:36;;;;;;;6.18;2.58;;;;;;;;;;5052699;28;19917;-77
2022/08/23 11:28:21;;;;;;;4.70;2.47;;;;;;;;;;5053434;28;20584;-77
2022/08/23 11:30:49;;;;;;;5.85;2.20;;;;;;;;;;5054308;28;20041;-76
2022/08/23 11:33:18;;;;;;;5.07;2.35;;;;;;;;;;5037132;28;20048;-78
2022/08/23 11:35:50;;;;;;;6.15;2.20;;;;;;;;;;5035657;28;20041;-79
2022/08/23 11:38:17;;;;;;;5.82;2.40;;;;;;;;;;5048337;28;20571;-78
2022/08/23 11:40:49;;;;;;;5.13;2.40;;;;;;;;;;5053563;28;20083;-80
2022/08/23 11:43:25;;;;;;;11.38;2.58;;;;;;;;;;5041910;28;20041;-79
2022/08/23 11:45:51;;;;;;;6.18;2.55;;;;;;;;;;5040835;28;20468;-79
2022/08/23 11:48:21;;;;;;;7.30;2.60;;;;;;;;;;5047100;28;20115;-78
2022/08/23 11:50:50;;;;;;;7.18;2.42;;;;;;;;;;5037410;28;20071;-78
2022/08/23 11:53:22;;;;;;;8.82;2.60;;;;;;;;;;5055569;28;20045;-78
2022/08/23 11:56:04;;;;;;;3.88;2.10;;;;;;;;;;5054828;28;20048;-78
2022/08/23 11:58:41;;;;;;;7.60;2.00;;;;;;;;;;5040105;28;20040;-78
2022/08/23 12:01:09;;;;;;;5.07;2.10;;;;;;;;;;5055700;28;20036;-78
2022/08/23 12:03:51;;;;;;;6.60;2.72;;;;;;;;;;5056901;28;20037;-78
2022/08/23 12:06:24;;;;;;;9.82;2.58;;;;;;;;;;5055290;28;20052;-78
2022/08/23 12:08:52;;;;;;;5.78;2.42;;;;;;;;;;5053298;28;20172;-78
2022/08/23 12:11:18;;;;;;;5.88;2.20;;;;;;;;;;5052257;28;20037;-78
2022/08/23 12:13:54;;;;;;;6.35;2.20;;;;;;;;;;5050830;28;20040;-78
2022/08/23 12:16:21;;;;;;;4.80;2.30;;;;;;;;;;5050277;28;20110;-79
2022/08/23 12:18:53;;;;;;;9.07;2.22;;;;;;;;;;5052731;28;20041;-79
2022/08/23 12:21:19;;;;;;;8.38;2.30;;;;;;;;;;5052943;28;20163;-78
2022/08/23 12:23:47;;;;;;;6.50;2.55;;;;;;;;;;5052455;28;20067;-78
2022/08/23 12:26:22;;;;;;;8.30;2.20;;;;;;;;;;5052479;28;20540;-78
2022/08/23 12:28:51;;;;;;;7.30;2.58;;;;;;;;;;5054678;28;20051;-78
2022/08/23 12:31:20;;;;;;;8.05;2.53;;;;;;;;;;5046798;28;20457;-78
2022/08/23 12:33:53;;;;;;;5.07;2.03;;;;;;;;;;5039477;28;20045;-79
2022/08/23 12:36:24;;;;;;;5.82;2.20;;;;;;;;;;5035782;28;20508;-78
2022/08/23 12:38:50;;;;;;;8.00;2.33;;;;;;;;;;5052810;28;20469;-79
2022/08/23 12:41:18;;;;;;;7.32;2.50;;;;;;;;;;5053155;28;20041;-78
2022/08/23 12:44:14;;;;;;;5.53;2.20;;;;;;;;;;5053146;28;20033;-78
2022/08/23 12:46:40;;;;;;;;;;;;;;;;;;5049567;28;20065;-78
2022/08/23 12:49:07;;;;;;;8.63;2.55;;;;;;;;;;5052397;28;19928;-78
2022/08/23 12:51:38;;;;;;;5.57;2.60;;;;;;;;;;5035943;28;20041;-78
2022/08/23 12:54:12;;;;;;;6.28;2.53;;;;;;;;;;5051805;28;20418;-77
2022/08/23 12:56:38;;;;;;;5.05;2.47;;;;;;;;;;5054423;28;20053;-78
2022/08/23 12:59:06;;;;;;;7.10;2.60;;;;;;;;;;5053158;28;20441;-78
2022/08/23 13:01:37;;;;;;;5.13;2.75;;;;;;;;;;5053103;28;20045;-78
2022/08/23 13:04:09;;;;;;;10.88;2.95;;;;;;;;;;5036252;28;20033;-78
2022/08/23 13:06:40;;;;;;;8.25;2.90;;;;;;;;;;5057147;28;20163;-78
2022/08/23 13:09:11;;;;;;;9.90;2.88;;;;;;;;;;5054764;28;20481;-78
2022/08/23 13:11:38;;;;;;;7.65;3.20;;;;;;;;;;5035621;28;20132;-78
2022/08/23 13:14:22;;;;;;;6.70;3.22;;;;;;;;;;5052429;28;20041;-78
2022/08/23 13:16:49;;;;;;;11.43;3.28;;;;;;;;;;5050214;28;20045;-78
2022/08/23 13:19:15;;;;;;;8.50;3.20;;;;;;;;;;5051341;28;20482;-78
2022/08/23 13:21:41;;;;;;;9.52;2.97;;;;;;;;;;5048630;28;20116;-77
2022/08/23 13:24:27;;;;;;;7.05;3.17;;;;;;;;;;5052663;28;20037;-77
2022/08/23 13:26:53;;;;;;;7.28;3.20;;;;;;;;;;5050338;28;20049;-78
2022/08/23 13:29:21;;;;;;;9.07;3.15;;;;;;;;;;5050478;28;20048;-78
2022/08/23 13:31:48;;;;;;;8.07;3.13;;;;;;;;;;5048586;28;20509;-78
2022/08/23 13:34:30;;;;;;;6.20;3.35;;;;;;;;;;5050165;28;20403;-79
2022/08/23 13:36:58;;;;;;;8.40;2.95;;;;;;;;;;5047625;28;20128;-80
2022/08/23 13:39:24;;;;;;;5.57;3.20;;;;;;;;;;5050604;28;20041;-79
2022/08/23 13:41:50;;;;;;;9.95;3.78;;;;;;;;;;5016694;28;20394;-79
2022/08/23 13:44:18;;;;;;;7.32;3.53;;;;;;;;;;5048433;28;20086;-79
2022/08/23 13:46:45;;;;;;;8.23;3.42;;;;;;;;;;5046633;28;20045;-79
2022/08/23 13:49:11;;;;;;;7.38;3.65;;;;;;;;;;5050693;28;20052;-79
2022/08/23 13:51:39;;;;;;;14.02;3.83;;;;;;;;;;5033654;28;20049;-79
2022/08/23 13:54:09;;;;;;;7.38;3.25;;;;;;;;;;5050120;28;20056;-77
2022/08/23 13:56:56;;;;;;;7.30;3.17;;;;;;;;;;5026906;28;20041;-77
2022/08/23 13:59:27;;;;;;;7.53;3.42;;;;;;;;;;5030997;28;20045;-77
2022/08/23 14:01:54;;;;;;;11.07;5.20;;;;;;;;;;5049643;28;20063;-77
2022/08/23 14:04:20;;;;;;;9.68;4.75;;;;;;;;;;5047612;28;20033;-77
2022/08/23 14:06:47;;;;;;;8.57;4.78;;;;;;;;;;5048444;28;20041;-77
2022/08/23 14:09:13;;;;;;;14.63;5.47;;;;;;;;;;5064693;28;20049;-78
2022/08/23 14:11:40;;;;;;;8.77;4.97;;;;;;;;;;5047447;28;20044;-78
2022/08/23 14:14:07;;;;;;;8.43;5.07;;;;;;;;;;5049975;28;20119;-78
2022/08/23 14:16:36;;;;;;;9.88;4.50;;;;;;;;;;5033336;28;20127;-79
2022/08/23 14:19:03;;;;;;;8.15;4.22;;;;;;;;;;5050915;28;20179;-79
2022/08/23 14:21:29;;;;;;;7.85;4.28;;;;;;;;;;5049830;28;20044;-79
2022/08/23 14:23:55;;;;;;;9.05;4.00;;;;;;;;;;5051044;28;20045;-79
2022/08/23 14:26:22;;;;;;;10.75;4.15;;;;;;;;;;5034002;28;20048;-79
2022/08/23 14:28:49;;;;;;;9.50;4.22;;;;;;;;;;5033429;28;20051;-79
2022/08/23 14:31:15;;;;;;;8.15;3.72;;;;;;;;;;5050790;28;20048;-80
2022/08/23 14:33:41;;;;;;;8.80;4.22;;;;;;;;;;5050209;28;20490;-80
2022/08/23 14:36:08;;;;;;;9.15;4.20;;;;;;;;;;5050576;28;20036;-80
2022/08/23 14:38:34;;;;;;;11.07;4.60;;;;;;;;;;5050275;28;20522;-80
2022/08/23 14:41:05;;;;;;;8.50;4.15;;;;;;;;;;5033648;28;20045;-80
2022/08/23 14:43:31;;;;;;;13.20;4.20;;;;;;;;;;5049683;28;20037;-80
2022/08/23 14:45:57;;;;;;;10.52;4.18;;;;;;;;;;5050460;28;20124;-80
2022/08/23 14:48:27;;;;;;;10.05;4.38;;;;;;;;;;5033537;28;20057;-80
2022/08/23 14:50:53;;;;;;;9.00;4.72;;;;;;;;;;5034746;28;20476;-80
2022/08/23 14:53:31;;;;;;;10.73;4.90;;;;;;;;;;5050715;28;20110;-80
2022/08/23 14:55:57;;;;;;;14.38;6.25;;;;;;;;;;5050411;28;20045;-80